sensor_id;sensor_type;location;lat;lon;timestamp;P1;durP1;ratioP1;P2;durP2;ratioP2
10293;SDS011;5192;50.328;7.610;2023-09-07T00:02:01;7.27;;;6.50;;
10293;SDS011;5192;50.328;7.610;2023-09-07T00:04:26;8.70;;;6.47;;
10293;SDS011;5192;50.328;7.610;2023-09-07T00:06:53;8.77;;;6.60;;
10293;SDS011;5192;50.328;7.610;2023-09-07T00:09:18;7.40;;;6.13;;
10293;SDS011;5192;50.328;7.610;2023-09-07T00:11:49;7.13;;;6.43;;
10293;SDS011;5192;50.328;7.610;2023-09-07T00:14:15;7.73;;;6.63;;
10293;SDS011;5192;50.328;7.610;2023-09-07T00:16:42;9.37;;;6.33;;
10293;SDS011;5192;50.328;7.610;2023-09-07T00:19:09;8.67;;;6.93;;
10293;SDS011;5192;50.328;7.610;2023-09-07T00:21:35;7.77;;;6.30;;
10293;SDS011;5192;50.328;7.610;2023-09-07T00:24:05;6.97;;;6.37;;
10293;SDS011;5192;50.328;7.610;2023-09-07T00:26:32;7.33;;;6.60;;
10293;SDS011;5192;50.328;7.610;2023-09-07T00:28:58;7.27;;;6.57;;
10293;SDS011;5192;50.328;7.610;2023-09-07T00:31:25;12.37;;;11.13;;
10293;SDS011;5192;50.328;7.610;2023-09-07T00:33:52;9.10;;;8.17;;
10293;SDS011;5192;50.328;7.610;2023-09-07T00:36:21;8.70;;;7.03;;
10293;SDS011;5192;50.328;7.610;2023-09-07T00:38:48;9.93;;;7.10;;
10293;SDS011;5192;50.328;7.610;2023-09-07T00:41:14;7.57;;;6.53;;
10293;SDS011;5192;50.328;7.610;2023-09-07T00:43:42;7.53;;;6.70;;
10293;SDS011;5192;50.328;7.610;2023-09-07T00:46:09;7.90;;;6.90;;
10293;SDS011;5192;50.328;7.610;2023-09-07T00:48:36;8.57;;;7.47;;
10293;SDS011;5192;50.328;7.610;2023-09-07T00:51:03;10.10;;;6.80;;
10293;SDS011;5192;50.328;7.610;2023-09-07T00:53:30;8.73;;;7.60;;
10293;SDS011;5192;50.328;7.610;2023-09-07T00:56:02;7.83;;;7.13;;
10293;SDS011;5192;50.328;7.610;2023-09-07T00:58:34;8.33;;;7.30;;
10293;SDS011;5192;50.328;7.610;2023-09-07T01:01:00;8.80;;;6.90;;
10293;SDS011;5192;50.328;7.610;2023-09-07T01:03:29;9.00;;;6.87;;
10293;SDS011;5192;50.328;7.610;2023-09-07T01:06:01;6.93;;;6.30;;
10293;SDS011;5192;50.328;7.610;2023-09-07T01:08:35;7.77;;;6.27;;
10293;SDS011;5192;50.328;7.610;2023-09-07T01:11:15;8.20;;;6.87;;
10293;SDS011;5192;50.328;7.610;2023-09-07T01:13:42;8.73;;;6.60;;
10293;SDS011;5192;50.328;7.610;2023-09-07T01:16:09;8.37;;;6.80;;
10293;SDS011;5192;50.328;7.610;2023-09-07T01:18:38;8.77;;;6.80;;
10293;SDS011;5192;50.328;7.610;2023-09-07T01:21:08;7.20;;;6.50;;
10293;SDS011;5192;50.328;7.610;2023-09-07T01:23:39;9.37;;;6.90;;
10293;SDS011;5192;50.328;7.610;2023-09-07T01:26:10;7.37;;;6.70;;
10293;SDS011;5192;50.328;7.610;2023-09-07T01:28:38;10.33;;;6.93;;
10293;SDS011;5192;50.328;7.610;2023-09-07T01:31:04;8.43;;;7.03;;
10293;SDS011;5192;50.328;7.610;2023-09-07T01:33:32;7.60;;;6.80;;
10293;SDS011;5192;50.328;7.610;2023-09-07T01:35:58;10.17;;;7.53;;
10293;SDS011;5192;50.328;7.610;2023-09-07T01:38:26;7.93;;;7.23;;
10293;SDS011;5192;50.328;7.610;2023-09-07T01:40:53;7.67;;;6.93;;
10293;SDS011;5192;50.328;7.610;2023-09-07T01:43:21;8.30;;;6.90;;
10293;SDS011;5192;50.328;7.610;2023-09-07T01:45:48;7.90;;;7.13;;
10293;SDS011;5192;50.328;7.610;2023-09-07T01:48:15;10.57;;;7.33;;
10293;SDS011;5192;50.328;7.610;2023-09-07T01:50:41;8.70;;;7.20;;
10293;SDS011;5192;50.328;7.610;2023-09-07T01:53:08;8.30;;;7.03;;
10293;SDS011;5192;50.328;7.610;2023-09-07T01:55:34;10.60;;;7.43;;
10293;SDS011;5192;50.328;7.610;2023-09-07T01:58:00;10.53;;;6.70;;
10293;SDS011;5192;50.328;7.610;2023-09-07T02:00:26;8.03;;;6.83;;
10293;SDS011;5192;50.328;7.610;2023-09-07T02:02:55;8.10;;;7.30;;
10293;SDS011;5192;50.328;7.610;2023-09-07T02:05:21;9.67;;;6.97;;
10293;SDS011;5192;50.328;7.610;2023-09-07T02:07:48;7.90;;;7.10;;
10293;SDS011;5192;50.328;7.610;2023-09-07T02:10:17;7.83;;;7.13;;
10293;SDS011;5192;50.328;7.610;2023-09-07T02:12:45;8.17;;;6.80;;
10293;SDS011;5192;50.328;7.610;2023-09-07T02:15:12;9.33;;;7.27;;
10293;SDS011;5192;50.328;7.610;2023-09-07T02:17:39;7.70;;;6.90;;
10293;SDS011;5192;50.328;7.610;2023-09-07T02:20:11;8.50;;;6.73;;
10293;SDS011;5192;50.328;7.610;2023-09-07T02:22:37;9.20;;;7.33;;
10293;SDS011;5192;50.328;7.610;2023-09-07T02:25:03;8.60;;;6.47;;
10293;SDS011;5192;50.328;7.610;2023-09-07T02:27:32;7.73;;;7.03;;
10293;SDS011;5192;50.328;7.610;2023-09-07T02:29:58;7.10;;;6.23;;
10293;SDS011;5192;50.328;7.610;2023-09-07T02:32:28;12.37;;;6.73;;
10293;SDS011;5192;50.328;7.610;2023-09-07T02:34:53;7.90;;;7.20;;
10293;SDS011;5192;50.328;7.610;2023-09-07T02:37:20;8.20;;;6.80;;
10293;SDS011;5192;50.328;7.610;2023-09-07T02:39:48;7.63;;;6.83;;
10293;SDS011;5192;50.328;7.610;2023-09-07T02:42:15;8.67;;;7.63;;
10293;SDS011;5192;50.328;7.610;2023-09-07T02:44:43;9.03;;;6.93;;
10293;SDS011;5192;50.328;7.610;2023-09-07T02:47:10;8.90;;;7.77;;
10293;SDS011;5192;50.328;7.610;2023-09-07T02:49:36;7.63;;;6.93;;
10293;SDS011;5192;50.328;7.610;2023-09-07T02:52:03;7.73;;;7.03;;
10293;SDS011;5192;50.328;7.610;2023-09-07T02:54:30;7.57;;;6.77;;
10293;SDS011;5192;50.328;7.610;2023-09-07T02:56:57;8.47;;;7.67;;
10293;SDS011;5192;50.328;7.610;2023-09-07T02:59:24;8.50;;;7.50;;
10293;SDS011;5192;50.328;7.610;2023-09-07T03:01:49;8.23;;;7.47;;
10293;SDS011;5192;50.328;7.610;2023-09-07T03:04:15;8.03;;;7.07;;
10293;SDS011;5192;50.328;7.610;2023-09-07T03:06:43;8.10;;;7.37;;
10293;SDS011;5192;50.328;7.610;2023-09-07T03:09:09;9.70;;;7.07;;
10293;SDS011;5192;50.328;7.610;2023-09-07T03:11:36;8.83;;;6.70;;
10293;SDS011;5192;50.328;7.610;2023-09-07T03:14:01;10.07;;;6.70;;
10293;SDS011;5192;50.328;7.610;2023-09-07T03:16:30;10.40;;;6.77;;
10293;SDS011;5192;50.328;7.610;2023-09-07T03:18:57;10.87;;;6.70;;
10293;SDS011;5192;50.328;7.610;2023-09-07T03:21:24;9.90;;;5.97;;
10293;SDS011;5192;50.328;7.610;2023-09-07T03:23:56;8.03;;;6.77;;
10293;SDS011;5192;50.328;7.610;2023-09-07T03:26:24;7.07;;;6.40;;
10293;SDS011;5192;50.328;7.610;2023-09-07T03:28:51;8.47;;;6.97;;
10293;SDS011;5192;50.328;7.610;2023-09-07T03:31:18;7.67;;;6.67;;
10293;SDS011;5192;50.328;7.610;2023-09-07T03:33:46;7.47;;;6.00;;
10293;SDS011;5192;50.328;7.610;2023-09-07T03:36:12;7.50;;;6.57;;
10293;SDS011;5192;50.328;7.610;2023-09-07T03:38:42;9.00;;;6.50;;
10293;SDS011;5192;50.328;7.610;2023-09-07T03:41:09;8.07;;;5.90;;
10293;SDS011;5192;50.328;7.610;2023-09-07T03:43:36;8.33;;;6.07;;
10293;SDS011;5192;50.328;7.610;2023-09-07T03:46:03;8.13;;;6.50;;
10293;SDS011;5192;50.328;7.610;2023-09-07T03:48:30;7.33;;;6.17;;
10293;SDS011;5192;50.328;7.610;2023-09-07T03:50:56;9.17;;;7.23;;
10293;SDS011;5192;50.328;7.610;2023-09-07T03:53:23;7.87;;;6.10;;
10293;SDS011;5192;50.328;7.610;2023-09-07T03:55:50;7.30;;;6.60;;
10293;SDS011;5192;50.328;7.610;2023-09-07T03:58:17;8.17;;;6.47;;
10293;SDS011;5192;50.328;7.610;2023-09-07T04:00:44;7.03;;;6.20;;
10293;SDS011;5192;50.328;7.610;2023-09-07T04:03:11;7.03;;;6.40;;
10293;SDS011;5192;50.328;7.610;2023-09-07T04:05:39;7.00;;;6.30;;
10293;SDS011;5192;50.328;7.610;2023-09-07T04:08:06;7.23;;;6.50;;
10293;SDS011;5192;50.328;7.610;2023-09-07T04:10:32;8.20;;;6.40;;
10293;SDS011;5192;50.328;7.610;2023-09-07T04:12:59;7.93;;;6.47;;
10293;SDS011;5192;50.328;7.610;2023-09-07T04:15:26;7.33;;;6.50;;
10293;SDS011;5192;50.328;7.610;2023-09-07T04:17:53;9.60;;;6.67;;
10293;SDS011;5192;50.328;7.610;2023-09-07T04:20:20;8.40;;;7.30;;
10293;SDS011;5192;50.328;7.610;2023-09-07T04:22:48;8.17;;;7.13;;
10293;SDS011;5192;50.328;7.610;2023-09-07T04:25:15;9.37;;;6.90;;
10293;SDS011;5192;50.328;7.610;2023-09-07T04:27:42;7.07;;;6.00;;
10293;SDS011;5192;50.328;7.610;2023-09-07T04:30:08;11.70;;;8.03;;
10293;SDS011;5192;50.328;7.610;2023-09-07T04:32:36;9.30;;;7.03;;
10293;SDS011;5192;50.328;7.610;2023-09-07T04:35:03;8.30;;;7.50;;
10293;SDS011;5192;50.328;7.610;2023-09-07T04:37:32;8.33;;;7.43;;
10293;SDS011;5192;50.328;7.610;2023-09-07T04:39:58;9.27;;;6.90;;
10293;SDS011;5192;50.328;7.610;2023-09-07T04:42:25;9.67;;;7.00;;
10293;SDS011;5192;50.328;7.610;2023-09-07T04:44:52;7.37;;;6.67;;
10293;SDS011;5192;50.328;7.610;2023-09-07T04:47:21;8.00;;;6.30;;
10293;SDS011;5192;50.328;7.610;2023-09-07T04:49:50;10.97;;;7.47;;
10293;SDS011;5192;50.328;7.610;2023-09-07T04:52:17;13.80;;;7.67;;
10293;SDS011;5192;50.328;7.610;2023-09-07T04:54:45;8.43;;;6.60;;
10293;SDS011;5192;50.328;7.610;2023-09-07T04:57:15;9.27;;;8.10;;
10293;SDS011;5192;50.328;7.610;2023-09-07T04:59:46;8.37;;;7.57;;
10293;SDS011;5192;50.328;7.610;2023-09-07T05:02:12;9.47;;;7.20;;
10293;SDS011;5192;50.328;7.610;2023-09-07T05:04:40;9.43;;;7.63;;
10293;SDS011;5192;50.328;7.610;2023-09-07T05:07:07;9.70;;;7.70;;
10293;SDS011;5192;50.328;7.610;2023-09-07T05:09:35;8.93;;;7.90;;
10293;SDS011;5192;50.328;7.610;2023-09-07T05:12:00;8.63;;;7.43;;
10293;SDS011;5192;50.328;7.610;2023-09-07T05:14:28;8.33;;;7.53;;
10293;SDS011;5192;50.328;7.610;2023-09-07T05:16:57;8.50;;;7.53;;
10293;SDS011;5192;50.328;7.610;2023-09-07T05:19:24;8.70;;;7.83;;
10293;SDS011;5192;50.328;7.610;2023-09-07T05:21:50;8.90;;;7.50;;
10293;SDS011;5192;50.328;7.610;2023-09-07T05:24:18;9.27;;;7.93;;
10293;SDS011;5192;50.328;7.610;2023-09-07T05:26:44;9.43;;;8.53;;
10293;SDS011;5192;50.328;7.610;2023-09-07T05:29:11;10.60;;;8.43;;
10293;SDS011;5192;50.328;7.610;2023-09-07T05:31:39;10.20;;;9.00;;
10293;SDS011;5192;50.328;7.610;2023-09-07T05:34:05;9.07;;;8.13;;
10293;SDS011;5192;50.328;7.610;2023-09-07T05:36:33;9.63;;;8.23;;
10293;SDS011;5192;50.328;7.610;2023-09-07T05:39:00;8.17;;;7.37;;
10293;SDS011;5192;50.328;7.610;2023-09-07T05:41:29;10.13;;;9.00;;
10293;SDS011;5192;50.328;7.610;2023-09-07T05:43:55;10.00;;;9.00;;
10293;SDS011;5192;50.328;7.610;2023-09-07T05:46:21;12.53;;;9.47;;
10293;SDS011;5192;50.328;7.610;2023-09-07T05:48:50;9.97;;;9.07;;
10293;SDS011;5192;50.328;7.610;2023-09-07T05:51:18;11.00;;;9.90;;
10293;SDS011;5192;50.328;7.610;2023-09-07T05:53:46;11.67;;;9.70;;
10293;SDS011;5192;50.328;7.610;2023-09-07T05:56:14;11.27;;;9.50;;
10293;SDS011;5192;50.328;7.610;2023-09-07T05:58:41;10.33;;;9.33;;
10293;SDS011;5192;50.328;7.610;2023-09-07T06:01:06;10.20;;;9.20;;
10293;SDS011;5192;50.328;7.610;2023-09-07T06:03:34;11.27;;;9.73;;
10293;SDS011;5192;50.328;7.610;2023-09-07T06:06:00;10.17;;;8.77;;
10293;SDS011;5192;50.328;7.610;2023-09-07T06:08:28;9.70;;;8.80;;
10293;SDS011;5192;50.328;7.610;2023-09-07T06:10:53;10.03;;;9.13;;
10293;SDS011;5192;50.328;7.610;2023-09-07T06:13:20;9.60;;;8.70;;
10293;SDS011;5192;50.328;7.610;2023-09-07T06:15:50;10.97;;;8.40;;
10293;SDS011;5192;50.328;7.610;2023-09-07T06:18:18;10.80;;;9.70;;
10293;SDS011;5192;50.328;7.610;2023-09-07T06:20:46;9.60;;;8.63;;
10293;SDS011;5192;50.328;7.610;2023-09-07T06:23:14;10.93;;;9.03;;
10293;SDS011;5192;50.328;7.610;2023-09-07T06:25:42;9.30;;;8.20;;
10293;SDS011;5192;50.328;7.610;2023-09-07T06:28:12;9.67;;;8.73;;
10293;SDS011;5192;50.328;7.610;2023-09-07T06:30:38;9.47;;;8.17;;
10293;SDS011;5192;50.328;7.610;2023-09-07T06:33:07;9.60;;;7.63;;
10293;SDS011;5192;50.328;7.610;2023-09-07T06:35:34;8.87;;;7.97;;
10293;SDS011;5192;50.328;7.610;2023-09-07T06:38:02;9.03;;;7.37;;
10293;SDS011;5192;50.328;7.610;2023-09-07T06:40:29;9.40;;;8.47;;
10293;SDS011;5192;50.328;7.610;2023-09-07T06:42:58;8.67;;;7.83;;
10293;SDS011;5192;50.328;7.610;2023-09-07T06:45:35;10.33;;;7.90;;
10293;SDS011;5192;50.328;7.610;2023-09-07T06:48:01;11.93;;;9.30;;
10293;SDS011;5192;50.328;7.610;2023-09-07T06:50:32;8.80;;;8.00;;
10293;SDS011;5192;50.328;7.610;2023-09-07T06:53:00;10.50;;;9.37;;
10293;SDS011;5192;50.328;7.610;2023-09-07T06:55:27;10.37;;;9.00;;
10293;SDS011;5192;50.328;7.610;2023-09-07T06:57:55;11.53;;;7.97;;
10293;SDS011;5192;50.328;7.610;2023-09-07T07:00:22;11.67;;;9.20;;
10293;SDS011;5192;50.328;7.610;2023-09-07T07:02:49;8.47;;;7.57;;
10293;SDS011;5192;50.328;7.610;2023-09-07T07:05:16;9.53;;;7.37;;
10293;SDS011;5192;50.328;7.610;2023-09-07T07:07:44;10.67;;;7.60;;
10293;SDS011;5192;50.328;7.610;2023-09-07T07:10:11;8.53;;;7.70;;
10293;SDS011;5192;50.328;7.610;2023-09-07T07:12:37;11.67;;;7.87;;
10293;SDS011;5192;50.328;7.610;2023-09-07T07:15:05;11.20;;;8.13;;
10293;SDS011;5192;50.328;7.610;2023-09-07T07:17:33;8.87;;;7.63;;
10293;SDS011;5192;50.328;7.610;2023-09-07T07:20:01;8.03;;;7.13;;
10293;SDS011;5192;50.328;7.610;2023-09-07T07:22:28;10.13;;;7.33;;
10293;SDS011;5192;50.328;7.610;2023-09-07T07:24:56;7.83;;;7.03;;
10293;SDS011;5192;50.328;7.610;2023-09-07T07:27:22;11.80;;;7.33;;
10293;SDS011;5192;50.328;7.610;2023-09-07T07:29:50;10.90;;;7.23;;
10293;SDS011;5192;50.328;7.610;2023-09-07T07:32:18;7.78;;;7.00;;
10293;SDS011;5192;50.328;7.610;2023-09-07T07:34:46;8.25;;;6.75;;
10293;SDS011;5192;50.328;7.610;2023-09-07T07:37:16;9.00;;;6.15;;
10293;SDS011;5192;50.328;7.610;2023-09-07T07:39:43;10.93;;;6.37;;
10293;SDS011;5192;50.328;7.610;2023-09-07T07:42:10;10.30;;;6.87;;
10293;SDS011;5192;50.328;7.610;2023-09-07T07:44:37;6.83;;;5.80;;
10293;SDS011;5192;50.328;7.610;2023-09-07T07:47:05;8.43;;;5.90;;
10293;SDS011;5192;50.328;7.610;2023-09-07T07:49:31;12.40;;;6.20;;
10293;SDS011;5192;50.328;7.610;2023-09-07T07:52:01;9.07;;;7.50;;
10293;SDS011;5192;50.328;7.610;2023-09-07T07:54:28;7.53;;;6.40;;
10293;SDS011;5192;50.328;7.610;2023-09-07T07:56:56;7.43;;;6.63;;
10293;SDS011;5192;50.328;7.610;2023-09-07T07:59:23;7.35;;;6.13;;
10293;SDS011;5192;50.328;7.610;2023-09-07T08:01:50;6.88;;;5.35;;
10293;SDS011;5192;50.328;7.610;2023-09-07T08:04:19;6.45;;;5.85;;
10293;SDS011;5192;50.328;7.610;2023-09-07T08:06:47;8.45;;;5.70;;
10293;SDS011;5192;50.328;7.610;2023-09-07T08:09:13;5.80;;;5.25;;
10293;SDS011;5192;50.328;7.610;2023-09-07T08:11:40;5.85;;;5.22;;
10293;SDS011;5192;50.328;7.610;2023-09-07T08:14:07;5.65;;;5.13;;
10293;SDS011;5192;50.328;7.610;2023-09-07T08:16:35;7.07;;;5.32;;
10293;SDS011;5192;50.328;7.610;2023-09-07T08:19:02;6.70;;;5.03;;
10293;SDS011;5192;50.328;7.610;2023-09-07T08:21:30;6.38;;;5.25;;
10293;SDS011;5192;50.328;7.610;2023-09-07T08:23:56;5.45;;;4.95;;
10293;SDS011;5192;50.328;7.610;2023-09-07T08:26:22;5.15;;;4.75;;
10293;SDS011;5192;50.328;7.610;2023-09-07T08:28:51;7.85;;;5.90;;
10293;SDS011;5192;50.328;7.610;2023-09-07T08:31:16;7.93;;;5.13;;
10293;SDS011;5192;50.328;7.610;2023-09-07T08:33:48;5.93;;;5.25;;
10293;SDS011;5192;50.328;7.610;2023-09-07T08:36:17;7.25;;;5.10;;
10293;SDS011;5192;50.328;7.610;2023-09-07T08:38:43;8.18;;;5.10;;
10293;SDS011;5192;50.328;7.610;2023-09-07T08:41:10;5.60;;;5.10;;
10293;SDS011;5192;50.328;7.610;2023-09-07T08:43:44;5.90;;;5.40;;
10293;SDS011;5192;50.328;7.610;2023-09-07T08:46:18;5.60;;;5.10;;
10293;SDS011;5192;50.328;7.610;2023-09-07T08:48:47;7.40;;;5.20;;
10293;SDS011;5192;50.328;7.610;2023-09-07T08:51:18;5.10;;;4.70;;
10293;SDS011;5192;50.328;7.610;2023-09-07T08:53:47;5.97;;;5.47;;
10293;SDS011;5192;50.328;7.610;2023-09-07T08:56:18;5.72;;;5.22;;
10293;SDS011;5192;50.328;7.610;2023-09-07T08:58:47;5.55;;;5.05;;
10293;SDS011;5192;50.328;7.610;2023-09-07T09:01:17;6.45;;;5.70;;
10293;SDS011;5192;50.328;7.610;2023-09-07T09:03:45;6.80;;;5.15;;
10293;SDS011;5192;50.328;7.610;2023-09-07T09:06:14;5.25;;;4.85;;
10293;SDS011;5192;50.328;7.610;2023-09-07T09:08:56;5.07;;;4.68;;
10293;SDS011;5192;50.328;7.610;2023-09-07T09:11:24;5.75;;;5.15;;
10293;SDS011;5192;50.328;7.610;2023-09-07T09:13:54;5.85;;;5.22;;
10293;SDS011;5192;50.328;7.610;2023-09-07T09:16:22;5.72;;;5.22;;
10293;SDS011;5192;50.328;7.610;2023-09-07T09:18:52;5.75;;;5.25;;
10293;SDS011;5192;50.328;7.610;2023-09-07T09:21:22;5.60;;;5.05;;
10293;SDS011;5192;50.328;7.610;2023-09-07T09:23:52;6.60;;;5.10;;
10293;SDS011;5192;50.328;7.610;2023-09-07T09:26:19;5.70;;;5.18;;
10293;SDS011;5192;50.328;7.610;2023-09-07T09:28:47;5.80;;;4.78;;
10293;SDS011;5192;50.328;7.610;2023-09-07T09:31:14;6.00;;;5.50;;
10293;SDS011;5192;50.328;7.610;2023-09-07T09:33:41;7.57;;;5.63;;
10293;SDS011;5192;50.328;7.610;2023-09-07T09:36:09;6.63;;;5.65;;
10293;SDS011;5192;50.328;7.610;2023-09-07T09:38:36;6.13;;;5.63;;
10293;SDS011;5192;50.328;7.610;2023-09-07T09:41:04;5.85;;;4.80;;
10293;SDS011;5192;50.328;7.610;2023-09-07T09:43:31;6.53;;;5.60;;
10293;SDS011;5192;50.328;7.610;2023-09-07T09:45:59;5.75;;;5.07;;
10293;SDS011;5192;50.328;7.610;2023-09-07T09:48:27;5.57;;;5.07;;
10293;SDS011;5192;50.328;7.610;2023-09-07T09:50:54;6.43;;;5.45;;
10293;SDS011;5192;50.328;7.610;2023-09-07T09:53:21;5.60;;;5.10;;
10293;SDS011;5192;50.328;7.610;2023-09-07T09:55:49;7.88;;;5.40;;
10293;SDS011;5192;50.328;7.610;2023-09-07T09:58:19;7.65;;;5.35;;
10293;SDS011;5192;50.328;7.610;2023-09-07T10:00:48;6.43;;;5.40;;
10293;SDS011;5192;50.328;7.610;2023-09-07T10:03:29;5.50;;;5.03;;
10293;SDS011;5192;50.328;7.610;2023-09-07T10:06:17;6.35;;;5.13;;
10293;SDS011;5192;50.328;7.610;2023-09-07T10:11:36;6.28;;;5.22;;
10293;SDS011;5192;50.328;7.610;2023-09-07T10:14:04;5.13;;;4.70;;
10293;SDS011;5192;50.328;7.610;2023-09-07T10:16:45;7.53;;;5.43;;
10293;SDS011;5192;50.328;7.610;2023-09-07T10:19:18;6.22;;;5.30;;
10293;SDS011;5192;50.328;7.610;2023-09-07T10:22:06;5.78;;;5.18;;
10293;SDS011;5192;50.328;7.610;2023-09-07T10:24:34;5.13;;;4.72;;
10293;SDS011;5192;50.328;7.610;2023-09-07T10:27:02;7.18;;;5.32;;
10293;SDS011;5192;50.328;7.610;2023-09-07T10:29:50;5.90;;;5.40;;
10293;SDS011;5192;50.328;7.610;2023-09-07T10:32:19;5.72;;;5.13;;
10293;SDS011;5192;50.328;7.610;2023-09-07T10:34:47;10.05;;;7.20;;
10293;SDS011;5192;50.328;7.610;2023-09-07T10:37:14;5.65;;;5.15;;
10293;SDS011;5192;50.328;7.610;2023-09-07T10:39:42;8.48;;;5.45;;
10293;SDS011;5192;50.328;7.610;2023-09-07T10:44:50;7.43;;;5.03;;
10293;SDS011;5192;50.328;7.610;2023-09-07T10:47:17;5.55;;;5.05;;
10293;SDS011;5192;50.328;7.610;2023-09-07T10:49:48;5.22;;;4.72;;
10293;SDS011;5192;50.328;7.610;2023-09-07T10:52:14;7.57;;;5.35;;
10293;SDS011;5192;50.328;7.610;2023-09-07T10:54:41;6.88;;;4.70;;
10293;SDS011;5192;50.328;7.610;2023-09-07T10:57:09;5.45;;;4.95;;
10293;SDS011;5192;50.328;7.610;2023-09-07T10:59:44;6.97;;;5.45;;
10293;SDS011;5192;50.328;7.610;2023-09-07T11:02:15;5.07;;;4.57;;
10293;SDS011;5192;50.328;7.610;2023-09-07T11:04:42;7.20;;;5.30;;
10293;SDS011;5192;50.328;7.610;2023-09-07T11:07:09;5.38;;;4.43;;
10293;SDS011;5192;50.328;7.610;2023-09-07T11:09:39;5.10;;;4.70;;
10293;SDS011;5192;50.328;7.610;2023-09-07T11:12:12;5.43;;;4.93;;
10293;SDS011;5192;50.328;7.610;2023-09-07T11:14:42;5.55;;;5.05;;
10293;SDS011;5192;50.328;7.610;2023-09-07T11:17:12;5.95;;;4.50;;
10293;SDS011;5192;50.328;7.610;2023-09-07T11:19:39;7.22;;;4.78;;
10293;SDS011;5192;50.328;7.610;2023-09-07T11:22:12;5.75;;;4.97;;
10293;SDS011;5192;50.328;7.610;2023-09-07T11:24:41;5.32;;;4.82;;
10293;SDS011;5192;50.328;7.610;2023-09-07T11:27:11;5.15;;;4.75;;
10293;SDS011;5192;50.328;7.610;2023-09-07T11:29:38;5.35;;;4.85;;
10293;SDS011;5192;50.328;7.610;2023-09-07T11:32:11;5.30;;;4.88;;
10293;SDS011;5192;50.328;7.610;2023-09-07T11:34:48;7.10;;;5.25;;
10293;SDS011;5192;50.328;7.610;2023-09-07T11:37:22;6.20;;;5.00;;
10293;SDS011;5192;50.328;7.610;2023-09-07T11:39:50;5.55;;;5.03;;
10293;SDS011;5192;50.328;7.610;2023-09-07T11:42:18;5.32;;;4.88;;
10293;SDS011;5192;50.328;7.610;2023-09-07T11:44:44;5.50;;;5.07;;
10293;SDS011;5192;50.328;7.610;2023-09-07T11:47:13;5.50;;;5.00;;
10293;SDS011;5192;50.328;7.610;2023-09-07T11:49:39;5.22;;;4.72;;
10293;SDS011;5192;50.328;7.610;2023-09-07T11:52:07;4.90;;;4.40;;
10293;SDS011;5192;50.328;7.610;2023-09-07T11:54:34;5.50;;;5.10;;
10293;SDS011;5192;50.328;7.610;2023-09-07T11:57:03;9.52;;;5.05;;
10293;SDS011;5192;50.328;7.610;2023-09-07T11:59:30;5.20;;;4.80;;
10293;SDS011;5192;50.328;7.610;2023-09-07T12:01:59;5.18;;;4.68;;
10293;SDS011;5192;50.328;7.610;2023-09-07T12:04:25;5.35;;;4.85;;
10293;SDS011;5192;50.328;7.610;2023-09-07T12:06:52;5.15;;;4.75;;
10293;SDS011;5192;50.328;7.610;2023-09-07T12:09:19;5.65;;;4.32;;
10293;SDS011;5192;50.328;7.610;2023-09-07T12:11:47;7.60;;;4.70;;
10293;SDS011;5192;50.328;7.610;2023-09-07T12:14:16;6.97;;;4.47;;
10293;SDS011;5192;50.328;7.610;2023-09-07T12:16:43;5.38;;;4.97;;
10293;SDS011;5192;50.328;7.610;2023-09-07T12:19:10;5.03;;;4.63;;
10293;SDS011;5192;50.328;7.610;2023-09-07T12:21:38;5.60;;;4.75;;
10293;SDS011;5192;50.328;7.610;2023-09-07T12:24:04;6.05;;;4.50;;
10293;SDS011;5192;50.328;7.610;2023-09-07T12:26:32;5.47;;;4.97;;
10293;SDS011;5192;50.328;7.610;2023-09-07T12:28:58;5.32;;;4.82;;
10293;SDS011;5192;50.328;7.610;2023-09-07T12:31:25;5.70;;;4.50;;
10293;SDS011;5192;50.328;7.610;2023-09-07T12:33:52;6.13;;;4.55;;
10293;SDS011;5192;50.328;7.610;2023-09-07T12:36:20;5.00;;;4.50;;
10293;SDS011;5192;50.328;7.610;2023-09-07T12:38:48;5.53;;;4.50;;
10293;SDS011;5192;50.328;7.610;2023-09-07T12:41:15;5.03;;;4.53;;
10293;SDS011;5192;50.328;7.610;2023-09-07T12:43:42;4.88;;;4.47;;
10293;SDS011;5192;50.328;7.610;2023-09-07T12:46:08;4.97;;;4.57;;
10293;SDS011;5192;50.328;7.610;2023-09-07T12:48:36;4.95;;;4.55;;
10293;SDS011;5192;50.328;7.610;2023-09-07T12:51:03;4.78;;;4.47;;
10293;SDS011;5192;50.328;7.610;2023-09-07T12:53:30;4.93;;;4.40;;
10293;SDS011;5192;50.328;7.610;2023-09-07T12:55:56;6.97;;;4.53;;
10293;SDS011;5192;50.328;7.610;2023-09-07T12:58:24;4.60;;;4.30;;
10293;SDS011;5192;50.328;7.610;2023-09-07T13:00:52;5.10;;;4.70;;
10293;SDS011;5192;50.328;7.610;2023-09-07T13:03:19;5.70;;;4.47;;
10293;SDS011;5192;50.328;7.610;2023-09-07T13:05:46;7.07;;;4.93;;
10293;SDS011;5192;50.328;7.610;2023-09-07T13:08:14;5.75;;;4.45;;
10293;SDS011;5192;50.328;7.610;2023-09-07T13:10:42;6.15;;;4.53;;
10293;SDS011;5192;50.328;7.610;2023-09-07T13:13:11;5.93;;;4.55;;
10293;SDS011;5192;50.328;7.610;2023-09-07T13:15:38;5.25;;;4.30;;
10293;SDS011;5192;50.328;7.610;2023-09-07T13:18:06;4.85;;;4.45;;
10293;SDS011;5192;50.328;7.610;2023-09-07T13:20:34;5.07;;;4.55;;
10293;SDS011;5192;50.328;7.610;2023-09-07T13:23:02;5.57;;;5.03;;
10293;SDS011;5192;50.328;7.610;2023-09-07T13:25:28;4.85;;;4.43;;
10293;SDS011;5192;50.328;7.610;2023-09-07T13:27:54;4.70;;;4.28;;
10293;SDS011;5192;50.328;7.610;2023-09-07T13:30:21;5.22;;;4.72;;
10293;SDS011;5192;50.328;7.610;2023-09-07T13:32:49;7.72;;;4.40;;
10293;SDS011;5192;50.328;7.610;2023-09-07T13:35:17;4.72;;;4.18;;
10293;SDS011;5192;50.328;7.610;2023-09-07T13:37:45;4.70;;;4.30;;
10293;SDS011;5192;50.328;7.610;2023-09-07T13:40:12;5.53;;;4.20;;
10293;SDS011;5192;50.328;7.610;2023-09-07T13:42:40;4.72;;;4.32;;
10293;SDS011;5192;50.328;7.610;2023-09-07T13:45:09;5.20;;;4.68;;
10293;SDS011;5192;50.328;7.610;2023-09-07T13:47:35;4.63;;;4.32;;
10293;SDS011;5192;50.328;7.610;2023-09-07T13:50:06;6.05;;;4.40;;
10293;SDS011;5192;50.328;7.610;2023-09-07T13:52:34;5.47;;;5.00;;
10293;SDS011;5192;50.328;7.610;2023-09-07T13:55:01;4.47;;;4.07;;
10293;SDS011;5192;50.328;7.610;2023-09-07T13:57:32;5.05;;;4.55;;
10293;SDS011;5192;50.328;7.610;2023-09-07T13:59:58;5.07;;;4.57;;
10293;SDS011;5192;50.328;7.610;2023-09-07T14:02:26;5.05;;;4.63;;
10293;SDS011;5192;50.328;7.610;2023-09-07T14:04:51;5.00;;;4.50;;
10293;SDS011;5192;50.328;7.610;2023-09-07T14:07:18;4.97;;;4.38;;
10293;SDS011;5192;50.328;7.610;2023-09-07T14:09:47;5.03;;;4.63;;
10293;SDS011;5192;50.328;7.610;2023-09-07T14:12:14;4.60;;;4.30;;
10293;SDS011;5192;50.328;7.610;2023-09-07T14:14:42;5.25;;;4.80;;
10293;SDS011;5192;50.328;7.610;2023-09-07T14:17:09;5.30;;;4.55;;
10293;SDS011;5192;50.328;7.610;2023-09-07T14:19:35;4.80;;;4.40;;
10293;SDS011;5192;50.328;7.610;2023-09-07T14:22:03;5.60;;;4.60;;
10293;SDS011;5192;50.328;7.610;2023-09-07T14:24:32;6.70;;;4.80;;
10293;SDS011;5192;50.328;7.610;2023-09-07T14:27:00;4.97;;;4.13;;
10293;SDS011;5192;50.328;7.610;2023-09-07T14:29:27;5.63;;;4.63;;
10293;SDS011;5192;50.328;7.610;2023-09-07T14:31:54;4.57;;;4.15;;
10293;SDS011;5192;50.328;7.610;2023-09-07T14:34:20;5.03;;;4.63;;
10293;SDS011;5192;50.328;7.610;2023-09-07T14:36:50;5.47;;;4.45;;
10293;SDS011;5192;50.328;7.610;2023-09-07T14:39:20;5.00;;;4.60;;
10293;SDS011;5192;50.328;7.610;2023-09-07T14:41:52;5.15;;;4.75;;
10293;SDS011;5192;50.328;7.610;2023-09-07T14:44:19;5.82;;;4.53;;
10293;SDS011;5192;50.328;7.610;2023-09-07T14:46:47;5.05;;;4.63;;
10293;SDS011;5192;50.328;7.610;2023-09-07T14:49:15;5.43;;;4.45;;
10293;SDS011;5192;50.328;7.610;2023-09-07T14:51:44;5.03;;;4.53;;
10293;SDS011;5192;50.328;7.610;2023-09-07T14:54:14;6.05;;;4.68;;
10293;SDS011;5192;50.328;7.610;2023-09-07T14:56:41;4.68;;;4.32;;
10293;SDS011;5192;50.328;7.610;2023-09-07T14:59:12;4.63;;;4.30;;
10293;SDS011;5192;50.328;7.610;2023-09-07T15:01:37;5.10;;;4.60;;
10293;SDS011;5192;50.328;7.610;2023-09-07T15:04:06;5.30;;;4.80;;
10293;SDS011;5192;50.328;7.610;2023-09-07T15:06:34;5.28;;;4.55;;
10293;SDS011;5192;50.328;7.610;2023-09-07T15:09:02;6.93;;;4.65;;
10293;SDS011;5192;50.328;7.610;2023-09-07T15:11:29;6.05;;;4.53;;